x

Bw Pioneer Buoy - Walker Ridge 249 (42360) Wave Buoy

9:00pm - Fri 27th May 2016 All times are UTC.

  • Sig Wave height 4.9ft
  • Peak Period 6s
  • Wind
    18mph, 22mph gusts
  • Sea Temp 82°f
  • Air Temp 80°f
  • Sea Pressure 1012.6mb

More Historic Weather Station data

Upgrade to MSW Pro to gain access to the past 30 days of data for over 8000 Wavebouys and Weather Stations around the globe.

Join Pro

Comparision Forecast

View Surf forecast
   
Fri 05/27 9:00pm 5ft 6s 18 22 mph 1012.6mb 82f 80f
8:00pm 5ft 5s 16 18 mph 1012.8mb 82f 80f
7:00pm 5ft 6s 18
mph
1013.1mb 82f 80f
6:00pm 5.5ft 6s 18 20 mph 1013.6mb 82f 80f
5:00pm 5ft 7s 22 25 mph 1013.3mb 82f 80f
4:00pm 5ft 6s 22 25 mph 1013.3mb 82f 80f
3:00pm 5ft 6s 20 25 mph 1013.3mb 82f 80f
2:00pm 5ft 6s 20 22 mph 1013.6mb 82f 80f
1:00pm 4.5ft 6s 18 20 mph 1013.6mb - 80f
12:00pm 4.5ft 6s 20 22 mph 1013.6mb 82f 80f
11:00am 4.5ft 6s 20
mph
1013.1mb 82f 80f
10:00am 5ft 6s 20 25 mph 1012.8mb 82f 80f
9:00am 4.5ft 5s 18 20 mph 1013.6mb 82f 81f
8:00am 4ft 6s 22 25 mph 1013.3mb 82f 81f
7:00am 3.5ft 6s 20
mph
1014.3mb 82f 81f
6:00am 3.5ft 6s 13
mph
1015mb 82f 81f
5:00am 3.5ft 5s 16 18 mph 1015mb 82f 81f
4:00am 4ft 6s 18
mph
1015mb 82f 81f
3:00am 4ft 6s 16 18 mph 1015mb 82f 81f
2:00am 4ft 5s 18 20 mph 1014.8mb 82f 81f
1:00am 4ft 5s 18 20 mph 1014.5mb 82f 81f
12:00am 4ft 5s 20 22 mph 1014.8mb 82f 81f
Thu 05/26 11:00pm 3.5ft 5s 18 20 mph 1015mb 82f 81f
10:00pm 3.5ft 6s 20
mph
1015.8mb 82f 81f
9:00pm 3.5ft 5s 20
mph
1016.3mb 82f 82f
8:00pm 3.5ft 6s 18 20 mph 1016.8mb 82f 81f
7:00pm 3ft 5s 18 20 mph 1017.2mb 82f 81f
6:00pm 3.5ft 5s 16
mph
1017.7mb 82f 81f
5:00pm 3.5ft 5s 13 16 mph 1018.5mb 82f 81f
4:00pm 3.5ft 5s 13 16 mph 1018.5mb 82f 81f
3:00pm 3.5ft 5s 13 16 mph 1018.5mb 82f 81f
2:00pm 3.5ft 5s 13 16 mph 1018.7mb 82f 80f
1:00pm 3.5ft 5s 13 16 mph 1018.2mb 81f 80f
12:00pm 3.5ft 5s 16 18 mph 1017.5mb 82f 80f
11:00am 3.5ft 6s 16 18 mph 1017mb 82f 80f
10:00am 3.5ft 5s 18
mph
1016.5mb 82f 80f
9:00am 3.5ft 6s 16
mph
1017mb 82f 80f
8:00am 3.5ft 6s 16 18 mph 1017.2mb 82f 80f
7:00am 3.5ft 6s 16 18 mph 1018mb 82f 80f
6:00am 3.5ft 6s 18
mph
1018.5mb 82f 80f
5:00am 4ft 6s 16 18 mph 1019.2mb 82f 80f
4:00am 4ft 6s 16
mph
1019.4mb 82f 81f
3:00am 3.5ft 6s 16 20 mph 1019.2mb 82f 81f
2:00am 3.5ft 6s 18 20 mph 1018.7mb 82f 81f
1:00am 3.5ft 6s 16 18 mph 1018.5mb 82f 81f
12:00am 3.5ft 5s 18
mph
1018.5mb 82f 81f
Wed 05/25 11:00pm 3.5ft 5s 16 18 mph 1018.5mb 82f 81f
10:00pm 3.5ft 6s 16 18 mph 1018.2mb 82f 81f
9:00pm 3.5ft 5s 16 18 mph 1018.7mb 82f 82f
8:00pm 3.5ft 6s 13 16 mph 1019mb - 81f
7:00pm 3.5ft 6s 13
mph
1019.2mb 82f 81f
6:00pm 4ft 6s 13 16 mph 1019.4mb 82f 81f
5:00pm 4ft 6s 16 18 mph 1019.7mb 82f 81f
4:00pm 4ft 6s 16 18 mph 1019.9mb 82f 81f
3:00pm 3.5ft 6s 16 18 mph 1019.9mb 82f 81f
2:00pm 4.5ft 6s 16 18 mph 1019.2mb 82f 81f
1:00pm 4ft 6s 16 18 mph 1018.7mb 82f 81f
12:00pm 3.5ft 6s 16 20 mph 1018mb 82f 80f
11:00am 3.5ft 6s 18 20 mph 1017.5mb 82f 80f
10:00am 3.5ft 6s 18
mph
1017.2mb 82f 80f
9:00am 3.5ft 5s 16 18 mph 1017.2mb 82f 80f
8:00am 3.5ft 6s 16 18 mph 1017.5mb 82f 81f
7:00am 3.5ft 5s 16 18 mph 1018mb 82f 81f
6:00am 3.5ft 5s 16
mph
1018.2mb 82f 81f
5:00am 3.5ft 5s 16
mph
1018.2mb 82f 81f
4:00am 3ft 4s 16 18 mph 1018mb 82f 81f
3:00am 3ft 4s 16 22 mph 1018mb 82f 81f
2:00am 2.5ft 4s 16 18 mph 1017.5mb 82f 81f
1:00am 2.5ft 5s 13 16 mph 1017.2mb 82f 81f
12:00am 3ft 5s 13 18 mph 1016.8mb 82f 81f
Tue 05/24 11:00pm 3ft 5s 16 18 mph 1016.5mb 82f 81f
10:00pm 3ft 5s 16 18 mph 1016.8mb 82f 81f
9:00pm 3ft 5s 16 18 mph 1017mb 82f 82f
8:00pm 2.5ft 4s 16 18 mph 1017.2mb 82f 81f
7:00pm 2.5ft 5s 16 18 mph 1017.5mb 82f 81f
6:00pm 2.5ft 5s 16 18 mph 1017.7mb 82f 81f
5:00pm 2.5ft 5s 16
mph
1017.7mb 82f 81f
4:00pm 2.5ft 5s 13
mph
1017.5mb 81f 81f
3:00pm 2.5ft 5s 11 13 mph 1017.2mb 81f 81f
2:00pm 2.5ft 5s 11 13 mph 1017mb 81f 81f
1:00pm 3ft 5s 13 16 mph 1016.3mb 81f 80f
12:00pm 3ft 5s 18
mph
1015.3mb 81f 80f
11:00am 3ft 4s 16 18 mph 1015mb 81f 80f
10:00am 3ft 4s 16 18 mph 1014.5mb 81f 80f
9:00am 2.5ft 4s 13 16 mph 1014.3mb 81f 80f
8:00am 2.5ft 4s 16 18 mph 1013.8mb 81f 80f
7:00am 2.5ft 4s 18 20 mph 1013.8mb 81f 80f
6:00am 2.5ft 4s 16 18 mph 1014.3mb 81f 80f
5:00am 2.5ft 4s 18
mph
1014.5mb 81f 80f
4:00am 2.5ft 4s 16 20 mph 1014.3mb 82f 80f
3:00am 2.5ft 4s 16 18 mph 1013.8mb 82f 80f
2:00am 2ft 4s 13 18 mph 1013.3mb 82f 80f
1:00am 2ft 4s 13 16 mph 1012.8mb 82f 80f
12:00am 1.6ft 4s 13
mph
1012.6mb 82f 81f
Mon 05/23 11:00pm 1.6ft 4s 11 13 mph 1012.6mb 82f 81f